Aérodrome :
LOGIN :

S'inscrire | Disclaimer

   EN    FR    IT 

 










Légende :    VFR   VFR Marginal   IFR   IFR Intensif   IFR Très Intensif
Visi : 
Plafond : 
>= 8 km
>= 3000ft
5 à 8 km
1000 à 3000 ft
1500m à 5 km
500 à 1000 ft
800 à 1500m
200 à 500 ft
< 800m
< 200 ft
Symboles :   Orages  Brouillard  Fortes neiges  Fortes précipitations  Vent > 20 kt
SIGMETs :   Divers  Orages  Givrage  Turbulence  Onde Orograph.  Cendres Volcan.






- Altitude de l'aérodrome : 1487 ft
- Code IATA : MUC


EDDM - München Franz Josef Strauss

DERNIER METAR :
  • 162020Z 09003KT CAVOK 07/05 Q1016 NOSIG

METARs EXPIRÉS :
  • 161950Z 34001KT CAVOK 09/06 Q1016 NOSIG
  • 161920Z 08003KT CAVOK 09/06 Q1016 NOSIG
  • 161850Z 10003KT CAVOK 10/06 Q1016 NOSIG
  • 161820Z 10005KT CAVOK 10/06 Q1016 NOSIG
  • 161750Z 10005KT CAVOK 11/06 Q1016 NOSIG

TAF TAF EDDM
Valide du 16 à 18h jusqu'au 18 à 00h UTC


161700Z 1618/1724 VRB03KT CAVOK
TEMPO 1710/1716 07005KT



MET'MAP, la Météo Aéronautique d'un coup d'oeil ! - Copyright ORBIFLY Décembre 2007 - Disclaimer

ORBIFLY MET'MAP TEAM :

Programmation & Développement : Alexandra Zaïnal
Conception & Développement : Baudouin d'Aumeries
Co-Programmation & Développement : Marc-Olivier Méhu
Soutien technique & logistique : Manuel Goepfert

Contact : metmap@orbifly.com




SOURCES & CREDITS :

   NOAA